LGSM Información de aeropuertos

Información de pistas
Pista 09 Longitud 6706 ft Ancho 148 ft
Elevación 20 ft Umbral 230 ft Rumbo 94
Pista 27 Longitud 6706 ft Ancho 148 ft
Elevación 10 ft Umbral 0 ft Rumbo 274
Frecuencias
Tipo A/G Nombre RDO Frequencia 563.7 MHZ
Tipo APP Nombre APP Frequencia 122.1 MHZ
Tipo TWR Nombre TWR Frequencia 122.1 MHZ
Radioayudas
Tipo VOR-DME Nombre Samos Frequencia 111600 KHZ
Tipo NDB Nombre Samos Frequencia 375 KHZ
Información meteorológica y NOTAM
ADDS - METARS form results

(1850 UTC 12 June 2021)
Data provider http://aviationweather.gov/metar/data/
 
Forecast for: LGSM (SAMOS AIRPORT , GR)
Text: TAF LGSM 121700Z 1218/1303 20008KT 9999 FEW020
Forecast period: 1800 UTC 12 June 2021 to 0300 UTC 13 June 2021
Forecast type: FROM: standard forecast or significant change
Winds: from the SSW (200 degrees) at 9 MPH (8 knots; 4.1 m/s)
Visibility: 6 or more miles (10+ km)
Ceiling: at least 12,000 feet AGL
Clouds: few clouds at 2000 feet AGL
Weather: no significant weather forecast for this period
Text: BECMG 1218/1220 35010KT
Forecast period: 1800 UTC 12 June 2021 to 0300 UTC 13 June 2021
Forecast type: BECOMING: Conditions expected to become as follows by 2000 UTC 12 June 2021
Winds: from the N (350 degrees) at 12 MPH (10 knots; 5.1 m/s)
Visibility: 6 or more miles (10+ km)
Ceiling: at least 12,000 feet AGL
Clouds: few clouds at 2000 feet AGL
Weather: no significant weather forecast for this period